Time;durP1;ratioP1;P1;durP2;ratioP2;P2;SDS_P1;SDS_P2;PMS_P1;PMS_P2;Temp;Humidity;BMP_temperature;BMP_pressure;BME280_temperature;BME280_humidity;BME280_pressure;Samples;Min_cycle;Max_cycle;Signal;HPM_P1;HPM_P2
2022/09/09 00:02:15;;;;;;;3.45;3.20;;;;;;;20.26;75.54;98467.91;5054971;28;20176;-51
2022/09/09 00:04:41;;;;;;;4.05;3.75;;;;;;;20.24;76.52;98465.47;5037074;28;20175;-51
2022/09/09 00:07:36;;;;;;;3.88;3.58;;;;;;;20.46;75.20;98463.97;5054808;28;20220;-51
2022/09/09 00:10:16;;;;;;;4.50;3.85;;;;;;;20.53;75.63;98457.91;5055342;28;20276;-51
2022/09/09 00:12:51;;;;;;;4.70;3.30;;;;;;;20.57;75.27;98453.94;5054757;28;20662;-51
2022/09/09 00:15:23;;;;;;;4.30;3.90;;;;;;;20.69;73.75;98446.53;5054746;28;20176;-51
2022/09/09 00:18:00;;;;;;;3.65;3.40;;;;;;;20.57;73.12;98455.75;5054983;28;20212;-52
2022/09/09 00:20:48;;;;;;;5.22;3.00;;;;;;;20.53;71.72;98441.28;5054936;28;20281;-51
2022/09/09 00:23:19;;;;;;;4.35;3.65;;;;;;;20.61;73.25;98457.06;5054971;28;20164;-53
2022/09/09 00:25:51;;;;;;;5.82;3.72;;;;;;;20.63;73.56;98445.38;5054479;28;20176;-53
2022/09/09 00:28:24;;;;;;;3.65;3.38;;;;;;;20.69;73.81;98439.44;5054674;28;20254;-51
2022/09/09 00:30:50;;;;;;;3.92;3.63;;;;;;;20.41;74.59;98401.38;5054504;28;20181;-51
2022/09/09 00:33:26;;;;;;;5.25;3.65;;;;;;;20.50;75.73;98446.88;5054672;28;20202;-51
2022/09/09 00:35:57;;;;;;;5.22;3.80;;;;;;;20.40;76.36;98438.34;5054334;28;20189;-51
2022/09/09 00:38:41;;;;;;;4.05;3.75;;;;;;;20.20;77.10;98447.53;5054061;28;20193;-51
2022/09/09 00:41:25;;;;;;;4.32;3.92;;;;;;;20.05;77.20;98449.97;5054512;28;20149;-51
2022/09/09 00:44:18;;;;;;;5.20;3.97;;;;;;;20.01;77.98;98459.19;5054376;28;20240;-51
2022/09/09 00:46:43;;;;;;;5.00;4.28;;;;;;;20.05;78.66;98462.31;5054077;28;20173;-51
2022/09/09 00:49:31;;;;;;;4.30;4.00;;;;;;;20.02;78.91;98465.25;5054083;28;20176;-52
2022/09/09 00:52:18;;;;;;;4.60;4.20;;;;;;;19.85;80.05;98455.69;5054146;28;20196;-51
2022/09/09 00:55:02;;;;;;;7.30;4.10;;;;;;;19.47;83.03;98451.81;5054274;28;20226;-52
2022/09/09 00:57:35;;;;;;;5.50;4.68;;;;;;;19.48;83.85;98461.34;5054001;28;20180;-52
2022/09/09 01:00:19;;;;;;;11.68;5.63;;;;;;;19.51;84.20;98458.41;5053883;28;20568;-53
2022/09/09 01:03:32;;;;;;;9.45;5.65;;;;;;;19.71;83.08;98451.06;5054076;28;20189;-52
2022/09/09 01:06:15;;;;;;;13.13;6.05;;;;;;;19.99;81.74;98463.75;5053868;28;20204;-52
2022/09/09 01:08:59;;;;;;;11.38;6.40;;;;;;;19.93;81.56;98467.03;5053784;28;20232;-53
2022/09/09 01:11:26;;;;;;;11.43;5.82;;;;;;;19.89;82.31;98478.03;5053896;28;20676;-53
2022/09/09 01:14:10;;;;;;;9.65;7.15;;;;;;;19.44;85.74;98472.31;5053593;28;20673;-53
2022/09/09 01:16:36;;;;;;;11.23;6.97;;;;;;;19.26;87.03;98475.06;5053634;28;20172;-52
2022/09/09 01:19:02;;;;;;;11.82;6.72;;;;;;;19.23;87.10;98461.44;5053577;28;20180;-53
2022/09/09 01:21:55;;;;;;;11.45;6.70;;;;;;;19.31;86.67;98470.16;5053480;28;20174;-52
2022/09/09 01:24:36;;;;;;;8.88;6.70;;;;;;;19.48;85.37;98466.59;5053548;28;20161;-53
2022/09/09 01:27:04;;;;;;;9.75;6.70;;;;;;;19.39;86.56;98466.72;5053883;28;20287;-52
2022/09/09 01:29:29;;;;;;;9.93;7.53;;;;;;;19.20;88.18;98451.19;5053607;28;20180;-53
2022/09/09 01:31:58;;;;;;;9.30;6.50;;;;;;;18.98;89.23;98454.38;5053491;28;20201;-53
2022/09/09 01:34:28;;;;;;;9.23;6.75;;;;;;;18.97;89.77;98444.88;5053252;28;20170;-53
2022/09/09 01:37:02;;;;;;;8.20;6.47;;;;;;;19.04;88.81;98454.56;5053171;28;20173;-53
2022/09/09 01:39:28;;;;;;;12.32;6.78;;;;;;;18.93;89.46;98454.00;5053245;28;20161;-52
2022/09/09 01:41:55;;;;;;;10.55;6.50;;;;;;;18.92;89.39;98455.81;5053224;28;20244;-53
2022/09/09 01:44:22;;;;;;;9.50;7.38;;;;;;;18.77;90.29;98453.94;5053049;28;20176;-53
2022/09/09 01:46:48;;;;;;;8.85;6.88;;;;;;;18.66;91.61;98451.56;5052998;28;20252;-53
2022/09/09 01:49:13;;;;;;;7.32;6.50;;;;;;;18.59;91.31;98447.94;5052274;28;20634;-53
2022/09/09 01:51:42;;;;;;;9.68;6.63;;;;;;;18.65;91.49;98442.88;5052640;28;20193;-53
2022/09/09 01:54:08;;;;;;;7.65;6.70;;;;;;;18.70;91.24;98447.66;5052987;28;20187;-53
2022/09/09 01:57:06;;;;;;;10.55;7.45;;;;;;;18.65;91.63;98436.84;5053079;28;20177;-53
2022/09/09 01:59:55;;;;;;;12.25;7.22;;;;;;;18.62;93.08;98451.06;5047216;28;20185;-52
2022/09/09 02:02:47;;;;;;;10.70;7.07;;;;;;;18.54;94.25;98437.09;5053046;28;20161;-53
2022/09/09 02:05:36;;;;;;;13.82;7.60;;;;;;;18.72;92.95;98436.03;5052267;28;20277;-52
2022/09/09 02:08:26;;;;;;;8.38;7.57;;;;;;;18.71;93.11;98446.69;5052626;28;20231;-52
2022/09/09 02:11:12;;;;;;;10.85;7.25;;;;;;;18.83;92.13;98445.44;5052964;28;20181;-52
2022/09/09 02:13:39;;;;;;;12.30;7.32;;;;;;;18.88;91.77;98435.31;5052844;28;20630;-52
2022/09/09 02:16:18;;;;;;;16.58;8.77;;;;;;;18.99;92.23;98456.00;5052505;28;20173;-53
2022/09/09 02:19:10;;;;;;;15.02;8.40;;;;;;;19.13;91.34;98452.81;5052693;28;20157;-53
2022/09/09 02:21:36;;;;;;;14.82;8.30;;;;;;;19.17;90.98;98451.53;5052553;28;20531;-52
2022/09/09 02:24:05;;;;;;;10.45;8.10;;;;;;;18.86;93.38;98447.75;5052574;28;20181;-52
2022/09/09 02:26:33;;;;;;;12.88;7.68;;;;;;;18.75;93.95;98440.16;5052704;28;20177;-52
2022/09/09 02:29:02;;;;;;;10.13;7.85;;;;;;;18.51;95.79;98440.84;5052253;28;20248;-53
2022/09/09 02:31:28;;;;;;;12.30;7.97;;;;;;;18.27;97.84;98424.91;5052105;28;20229;-53
2022/09/09 02:34:00;;;;;;;15.48;8.48;;;;;;;18.43;97.29;98429.47;5052222;28;20208;-52
2022/09/09 02:36:31;;;;;;;11.80;8.88;;;;;;;18.37;96.97;98438.75;5052147;28;20169;-52
2022/09/09 02:38:56;;;;;;;14.07;8.10;;;;;;;18.34;98.14;98453.94;5052153;28;20157;-52
2022/09/09 02:41:33;;;;;;;10.10;7.90;;;;;;;18.44;97.88;98449.44;5052068;28;20223;-52
2022/09/09 02:43:59;;;;;;;9.98;8.50;;;;;;;18.44;97.26;98436.34;5052120;28;20173;-52
2022/09/09 02:46:25;;;;;;;10.30;8.65;;;;;;;18.55;96.83;98446.59;5052044;28;20191;-52
2022/09/09 02:49:02;;;;;;;9.82;7.75;;;;;;;18.40;97.81;98442.88;5052220;28;20330;-53
2022/09/09 02:51:46;;;;;;;9.45;7.97;;;;;;;18.34;97.70;98444.31;5051835;28;20197;-53
2022/09/09 02:54:30;;;;;;;8.82;7.85;;;;;;;18.21;99.17;98435.16;5052270;28;20158;-52
2022/09/09 02:57:20;;;;;;;9.10;6.97;;;;;;;18.23;99.36;98426.19;5052078;28;20649;-53
2022/09/09 02:59:47;;;;;;;9.07;6.88;;;;;;;18.22;99.74;98413.22;5051500;28;20644;-52
2022/09/09 03:02:12;;;;;;;9.75;8.00;;;;;;;18.33;98.38;98419.09;5051902;28;20558;-52
2022/09/09 03:04:39;;;;;;;7.57;6.80;;;;;;;18.50;95.62;98422.63;5051802;28;20169;-53
2022/09/09 03:07:05;;;;;;;7.95;6.97;;;;;;;18.61;95.39;98432.88;5051938;28;20209;-53
2022/09/09 03:09:32;;;;;;;8.27;6.80;;;;;;;18.67;95.05;98432.25;5052076;28;20194;-52
2022/09/09 03:11:58;;;;;;;11.43;6.60;;;;;;;18.79;92.51;98436.25;5051914;28;20225;-53
2022/09/09 03:14:26;;;;;;;7.07;6.47;;;;;;;18.80;93.50;98453.63;5051867;28;20270;-52
2022/09/09 03:16:52;;;;;;;8.93;6.35;;;;;;;18.81;92.97;98465.75;5051749;28;20173;-53
2022/09/09 03:19:18;;;;;;;12.48;7.45;;;;;;;18.90;92.42;98470.06;5051689;28;20177;-52
2022/09/09 03:21:45;;;;;;;14.80;6.90;;;;;;;18.95;91.08;98473.06;5051659;28;20169;-52
2022/09/09 03:24:10;;;;;;;7.32;6.25;;;;;;;18.80;93.74;98469.34;5051554;28;20173;-53
2022/09/09 03:26:37;;;;;;;7.65;6.57;;;;;;;18.65;94.54;98460.41;5051832;28;20234;-53
2022/09/09 03:29:04;;;;;;;11.43;7.45;;;;;;;18.54;94.97;98463.28;5051837;28;20243;-53
2022/09/09 03:31:30;;;;;;;11.43;6.38;;;;;;;18.36;97.09;98459.88;5051621;28;20274;-53
2022/09/09 03:33:58;;;;;;;12.40;7.50;;;;;;;18.21;98.45;98466.59;5051558;28;20231;-53
2022/09/09 03:36:24;;;;;;;11.75;7.75;;;;;;;18.19;98.67;98471.97;5051675;28;20177;-53
2022/09/09 03:38:50;;;;;;;13.40;7.20;;;;;;;18.27;98.41;98464.19;5051478;28;20180;-53
2022/09/09 03:41:16;;;;;;;12.80;7.75;;;;;;;18.28;97.70;98455.38;5051689;28;20223;-52
2022/09/09 03:43:41;;;;;;;7.97;6.65;;;;;;;18.16;98.69;98450.50;5051463;28;20177;-53
2022/09/09 03:46:07;;;;;;;7.57;6.78;;;;;;;18.19;99.00;98463.31;5051404;28;20165;-53
2022/09/09 03:48:32;;;;;;;9.55;7.78;;;;;;;18.17;98.89;98460.84;5051376;28;20177;-53
2022/09/09 03:51:00;;;;;;;7.18;6.55;;;;;;;18.16;99.16;98460.97;5051627;28;20185;-52
2022/09/09 03:53:26;;;;;;;7.32;6.28;;;;;;;18.30;96.37;98465.69;5051367;28;20669;-52
2022/09/09 03:55:54;;;;;;;9.10;6.85;;;;;;;18.38;96.15;98476.25;5051689;28;20185;-52
2022/09/09 03:58:21;;;;;;;8.15;7.03;;;;;;;18.45;95.09;98474.69;5051400;28;20260;-52
2022/09/09 04:01:02;;;;;;;8.00;7.00;;;;;;;18.17;97.44;98465.25;5033746;28;20169;-52
2022/09/09 04:03:29;;;;;;;10.02;6.32;;;;;;;18.12;99.08;98467.50;5051669;28;20169;-52
2022/09/09 04:05:56;;;;;;;7.57;6.65;;;;;;;17.76;100.00;98435.25;5051287;28;20802;-52
2022/09/09 04:08:25;;;;;;;9.10;6.30;;;;;;;17.98;100.00;98462.78;5051432;28;20229;-52
2022/09/09 04:10:51;;;;;;;7.72;6.47;;;;;;;18.19;100.00;98458.06;5051408;28;20581;-52
2022/09/09 04:13:17;;;;;;;6.18;5.65;;;;;;;18.22;99.11;98450.72;5035033;28;20200;-52
2022/09/09 04:15:45;;;;;;;7.35;6.63;;;;;;;18.23;98.79;98454.16;5054794;28;20173;-52
2022/09/09 04:18:11;;;;;;;7.05;6.35;;;;;;;18.27;98.92;98458.13;5054957;28;20205;-52
2022/09/09 04:20:37;;;;;;;10.20;6.38;;;;;;;18.35;97.47;98455.59;5036729;28;20173;-52
2022/09/09 04:23:03;;;;;;;8.60;6.32;;;;;;;18.47;97.16;98455.22;5054544;28;20173;-53
2022/09/09 04:25:28;;;;;;;5.65;5.15;;;;;;;18.42;96.61;98444.34;5054562;28;20169;-52
2022/09/09 04:27:56;;;;;;;6.68;5.93;;;;;;;18.44;97.53;98442.44;5054822;28;20267;-52
2022/09/09 04:30:21;;;;;;;13.20;7.22;;;;;;;18.54;97.95;98455.44;5054647;28;20622;-52
2022/09/09 04:32:47;;;;;;;9.35;6.30;;;;;;;18.65;96.82;98470.91;5054466;28;20169;-52
2022/09/09 04:35:12;;;;;;;7.15;5.80;;;;;;;18.71;96.39;98460.59;5054737;28;20259;-52
2022/09/09 04:37:38;;;;;;;10.45;7.15;;;;;;;18.81;95.83;98470.97;5054861;28;20208;-52
2022/09/09 04:40:04;;;;;;;9.02;6.75;;;;;;;18.65;96.28;98455.97;5054565;28;20253;-52
2022/09/09 04:42:29;;;;;;;12.02;7.38;;;;;;;18.81;95.85;98470.97;5036324;28;20177;-52
2022/09/09 04:44:55;;;;;;;9.02;7.35;;;;;;;18.79;95.65;98473.78;5054234;28;20176;-52
2022/09/09 04:47:21;;;;;;;8.23;7.43;;;;;;;18.89;94.56;98464.00;5054589;28;20177;-53
2022/09/09 04:49:47;;;;;;;11.68;9.00;;;;;;;19.15;93.17;98477.91;5036260;28;20264;-52
2022/09/09 04:52:12;;;;;;;16.65;8.48;;;;;;;19.16;92.07;98473.47;5054293;28;20704;-53
2022/09/09 04:54:38;;;;;;;13.23;7.95;;;;;;;19.16;92.50;98479.56;5054068;28;20235;-52
2022/09/09 04:57:04;;;;;;;15.00;8.15;;;;;;;19.23;91.65;98479.78;5054220;28;20173;-53
2022/09/09 04:59:30;;;;;;;13.88;8.07;;;;;;;19.29;91.17;98471.28;5053874;28;20673;-51
2022/09/09 05:01:55;;;;;;;8.07;6.70;;;;;;;19.37;89.15;98460.81;5054109;28;20197;-51
2022/09/09 05:04:21;;;;;;;7.35;5.25;;;;;;;19.51;88.55;98475.94;5053850;28;20723;-51
2022/09/09 05:06:46;;;;;;;7.28;5.70;;;;;;;19.47;88.34;98479.88;5053806;28;20205;-51
2022/09/09 05:09:12;;;;;;;6.68;5.85;;;;;;;19.60;88.16;98493.38;5035897;28;20678;-51
2022/09/09 05:11:38;;;;;;;9.43;6.72;;;;;;;19.72;87.37;98494.72;5053819;28;20289;-53
2022/09/09 05:14:04;;;;;;;10.30;7.35;;;;;;;19.78;86.71;98494.91;5053683;28;20176;-52
2022/09/09 05:16:30;;;;;;;12.13;7.20;;;;;;;19.95;86.67;98516.78;5053885;28;20226;-51
2022/09/09 05:18:55;;;;;;;14.18;7.72;;;;;;;19.96;86.23;98515.78;5053789;28;20252;-51
2022/09/09 05:21:24;;;;;;;13.68;8.02;;;;;;;20.11;85.57;98506.34;5053527;28;20176;-52
2022/09/09 05:23:51;;;;;;;17.60;7.70;;;;;;;19.80;87.20;98492.09;5053528;28;20193;-52
2022/09/09 05:26:19;;;;;;;10.07;8.00;;;;;;;19.89;87.58;98492.00;5052759;28;20165;-53
2022/09/09 05:28:45;;;;;;;11.45;7.35;;;;;;;19.88;86.63;98484.28;5053401;28;20184;-53
2022/09/09 05:31:12;;;;;;;10.90;7.10;;;;;;;19.98;87.24;98498.06;5053197;28;20205;-51
2022/09/09 05:33:42;;;;;;;10.70;7.88;;;;;;;19.59;86.49;98421.66;5053471;28;20223;-53
2022/09/09 05:36:13;;;;;;;12.90;7.88;;;;;;;20.18;86.53;98496.81;5053543;28;20174;-53
2022/09/09 05:38:40;;;;;;;12.20;8.48;;;;;;;20.17;86.53;98484.66;5053144;28;20252;-53
2022/09/09 05:41:06;;;;;;;19.23;10.25;;;;;;;20.04;86.32;98473.81;5053418;28;20248;-53
2022/09/09 05:43:32;;;;;;;15.02;8.32;;;;;;;19.84;88.68;98477.69;5053363;28;20247;-53
2022/09/09 05:46:07;;;;;;;11.48;8.02;;;;;;;19.87;87.76;98440.63;5053316;28;20176;-53
2022/09/09 05:48:39;;;;;;;9.70;8.30;;;;;;;20.20;86.92;98479.06;5035039;28;20578;-53
2022/09/09 05:51:06;;;;;;;8.85;7.65;;;;;;;20.40;86.36;98497.00;5052909;28;20189;-53
2022/09/09 05:53:33;;;;;;;10.75;7.80;;;;;;;20.52;84.67;98500.13;5052951;28;20212;-53
2022/09/09 05:56:04;;;;;;;11.65;7.80;;;;;;;20.51;83.23;98495.84;5052855;28;20673;-53
2022/09/09 05:58:31;;;;;;;8.65;7.75;;;;;;;20.60;83.29;98490.44;5053117;28;20161;-53
2022/09/09 06:01:02;;;;;;;11.30;7.78;;;;;;;20.76;82.29;98505.38;5052746;28;20170;-53
2022/09/09 06:03:27;;;;;;;11.02;7.30;;;;;;;20.85;81.51;98510.44;5052688;28;20681;-53
2022/09/09 06:06:05;;;;;;;11.57;7.53;;;;;;;20.94;81.16;98511.28;5052685;28;20170;-53
2022/09/09 06:08:36;;;;;;;12.02;7.63;;;;;;;21.01;80.61;98513.09;5052819;28;20204;-53
2022/09/09 06:11:14;;;;;;;10.10;7.28;;;;;;;21.06;79.53;98505.50;5052507;28;20193;-53
2022/09/09 06:13:40;;;;;;;7.28;6.68;;;;;;;21.15;78.77;98503.69;5052557;28;20156;-53
2022/09/09 06:16:08;;;;;;;13.68;6.88;;;;;;;21.18;78.06;98491.00;5052568;28;20173;-53
2022/09/09 06:18:33;;;;;;;14.20;7.72;;;;;;;21.29;78.24;98487.19;5052484;28;20180;-53
2022/09/09 06:21:06;;;;;;;9.00;6.90;;;;;;;21.32;77.32;98485.03;5052454;28;20169;-53
2022/09/09 06:23:32;;;;;;;8.30;6.57;;;;;;;21.42;76.82;98479.56;5052685;28;20180;-53
2022/09/09 06:26:10;;;;;;;7.78;6.53;;;;;;;21.39;76.69;98472.81;5052291;28;20225;-53
2022/09/09 06:28:36;;;;;;;14.70;7.38;;;;;;;21.38;76.49;98470.38;5052307;28;20180;-53
2022/09/09 06:31:07;;;;;;;11.38;7.50;;;;;;;21.10;77.06;98475.22;5052429;28;20197;-53
2022/09/09 06:33:36;;;;;;;11.52;7.25;;;;;;;20.82;79.15;98476.59;5052477;28;20208;-53
2022/09/09 06:36:03;;;;;;;10.70;7.32;;;;;;;20.95;79.66;98470.81;5052071;28;20181;-53
2022/09/09 06:38:29;;;;;;;8.18;7.35;;;;;;;21.10;79.15;98469.97;5052077;28;20184;-53
2022/09/09 06:40:56;;;;;;;13.00;7.63;;;;;;;21.25;78.29;98457.75;5052146;28;20169;-53
2022/09/09 06:43:22;;;;;;;13.65;8.13;;;;;;;21.38;77.27;98479.06;5052330;28;20609;-53
2022/09/09 06:46:10;;;;;;;12.10;8.60;;;;;;;21.48;77.21;98494.66;5052298;28;20180;-53
2022/09/09 06:48:36;;;;;;;14.30;8.57;;;;;;;21.63;76.34;98485.06;5052002;28;20165;-53
2022/09/09 06:51:05;;;;;;;11.63;8.85;;;;;;;21.77;76.04;98500.16;5052144;28;20201;-53
2022/09/09 06:53:35;;;;;;;15.98;8.02;;;;;;;21.95;75.48;98509.44;5052214;28;20183;-51
2022/09/09 06:56:02;;;;;;;12.98;9.02;;;;;;;22.03;74.23;98513.84;5052073;28;20165;-51
2022/09/09 06:58:28;;;;;;;20.80;8.30;;;;;;;22.17;73.98;98513.94;5052164;28;20599;-54
2022/09/09 07:01:07;;;;;;;10.85;8.50;;;;;;;22.30;73.21;98524.69;5052085;28;20184;-53
2022/09/09 07:03:33;;;;;;;15.38;9.52;;;;;;;22.20;72.34;98516.19;5051848;28;20203;-52
2022/09/09 07:05:59;;;;;;;14.68;8.65;;;;;;;22.32;72.26;98508.72;5052075;28;20252;-52
2022/09/09 07:08:25;;;;;;;15.43;8.23;;;;;;;22.45;72.19;98515.06;5051644;28;20249;-52
2022/09/09 07:10:53;;;;;;;13.60;8.05;;;;;;;22.54;71.95;98511.34;5051974;28;20579;-52
2022/09/09 07:13:25;;;;;;;12.48;8.35;;;;;;;22.68;70.73;98518.47;5051979;28;20181;-52
2022/09/09 07:15:52;;;;;;;10.25;7.80;;;;;;;22.77;70.27;98521.88;5052002;28;20545;-52
2022/09/09 07:18:18;;;;;;;14.07;8.07;;;;;;;22.78;70.12;98528.81;5051979;28;20173;-52
2022/09/09 07:20:52;;;;;;;13.93;8.90;;;;;;;22.69;69.66;98521.94;5051662;28;20172;-52
2022/09/09 07:23:18;;;;;;;14.40;8.90;;;;;;;22.52;70.62;98512.53;5051697;28;20192;-52
2022/09/09 07:25:47;;;;;;;14.13;8.45;;;;;;;22.55;70.37;98517.47;5033688;28;20258;-52
2022/09/09 07:28:13;;;;;;;13.25;8.13;;;;;;;22.40;71.60;98498.94;5051875;28;20193;-52
2022/09/09 07:30:39;;;;;;;15.77;8.15;;;;;;;22.39;72.23;98499.94;5051461;28;20239;-52
2022/09/09 07:33:04;;;;;;;13.20;8.73;;;;;;;22.40;72.10;98492.81;5051518;28;20188;-52
2022/09/09 07:35:29;;;;;;;14.48;7.50;;;;;;;22.46;72.33;98497.41;5051581;28;20174;-52
2022/09/09 07:37:55;;;;;;;15.85;8.55;;;;;;;22.25;71.12;98468.25;5051485;28;20177;-52
2022/09/09 07:40:21;;;;;;;14.27;8.70;;;;;;;22.62;70.85;98508.63;5051548;28;20252;-52
2022/09/09 07:42:47;;;;;;;13.25;9.00;;;;;;;22.72;70.76;98513.69;5051511;28;20567;-52
2022/09/09 07:45:14;;;;;;;13.20;8.10;;;;;;;22.80;70.29;98510.97;5051731;28;20181;-53
2022/09/09 07:47:41;;;;;;;12.38;8.45;;;;;;;22.96;69.67;98510.81;5052040;28;20185;-52
2022/09/09 07:50:06;;;;;;;11.63;8.55;;;;;;;23.02;69.13;98500.34;5055382;28;20185;-52
2022/09/09 07:52:33;;;;;;;9.85;7.95;;;;;;;23.17;68.89;98497.75;5055474;28;20575;-52
2022/09/09 07:54:59;;;;;;;11.48;7.43;;;;;;;23.25;67.24;98505.59;5055197;28;20204;-52
2022/09/09 07:57:25;;;;;;;9.32;8.20;;;;;;;23.09;67.85;98500.47;5055417;28;20600;-54
2022/09/09 07:59:51;;;;;;;9.07;8.05;;;;;;;23.01;68.89;98500.56;5055187;28;20184;-51
2022/09/09 08:02:17;;;;;;;11.93;8.32;;;;;;;22.94;69.37;98502.25;5055241;28;20184;-51
2022/09/09 08:04:42;;;;;;;15.60;8.73;;;;;;;23.02;69.44;98499.53;5054996;28;20193;-51
2022/09/09 08:07:07;;;;;;;10.07;8.38;;;;;;;23.07;68.29;98491.91;5054769;28;20291;-52
2022/09/09 08:09:33;;;;;;;14.73;9.00;;;;;;;23.28;68.91;98499.94;5054871;28;20165;-52
2022/09/09 08:12:00;;;;;;;9.13;8.20;;;;;;;23.29;68.46;98486.56;5055299;28;20216;-51
2022/09/09 08:14:26;;;;;;;13.02;8.00;;;;;;;23.49;67.62;98481.53;5055003;28;20203;-52
2022/09/09 08:16:54;;;;;;;17.73;8.30;;;;;;;23.72;66.69;98484.88;5054694;28;20251;-52
2022/09/09 08:19:19;;;;;;;13.52;8.07;;;;;;;23.72;65.79;98487.50;5054734;28;20173;-52
2022/09/09 08:21:45;;;;;;;10.95;8.57;;;;;;;23.84;66.22;98482.38;5054688;28;20177;-52
2022/09/09 08:24:12;;;;;;;12.82;8.27;;;;;;;23.98;65.30;98484.16;5054869;28;20280;-52
2022/09/09 08:26:41;;;;;;;9.88;8.13;;;;;;;23.98;65.34;98477.25;5054525;28;20665;-52
2022/09/09 08:29:08;;;;;;;12.52;7.95;;;;;;;24.08;65.98;98477.78;5054818;28;20172;-52
2022/09/09 08:31:39;;;;;;;13.57;8.70;;;;;;;24.23;65.36;98477.53;5054864;28;20280;-54
2022/09/09 08:34:05;;;;;;;13.75;8.00;;;;;;;24.36;64.80;98482.94;5054966;28;20161;-54
2022/09/09 08:36:34;;;;;;;16.50;8.35;;;;;;;24.40;63.96;98478.09;5054650;28;20675;-52
2022/09/09 08:39:00;;;;;;;9.07;7.68;;;;;;;24.47;63.34;98477.13;5054384;28;20204;-52
2022/09/09 08:42:01;;;;;;;11.57;8.45;;;;;;;24.49;63.40;98477.75;5054584;28;20642;-52
2022/09/09 08:44:44;;;;;;;11.23;8.40;;;;;;;24.53;64.43;98473.72;5054579;28;20162;-52
2022/09/09 08:47:15;;;;;;;10.88;7.57;;;;;;;24.60;63.70;98469.34;5054748;28;20243;-52
2022/09/09 08:49:59;;;;;;;12.90;8.00;;;;;;;24.61;63.76;98468.31;5054272;28;20658;-53
2022/09/09 08:52:31;;;;;;;10.98;7.88;;;;;;;24.63;63.76;98465.50;5054098;28;20189;-52
2022/09/09 08:55:02;;;;;;;9.95;7.90;;;;;;;24.64;63.39;98460.00;5054106;28;20178;-53
2022/09/09 08:57:32;;;;;;;14.82;8.45;;;;;;;24.67;62.84;98464.09;5054296;28;20162;-53
2022/09/09 08:59:58;;;;;;;11.00;7.60;;;;;;;24.78;62.79;98464.38;5053708;28;20260;-53
2022/09/09 09:02:45;;;;;;;12.95;7.60;;;;;;;24.84;62.44;98466.25;5053971;28;20169;-53
2022/09/09 09:05:32;;;;;;;10.13;7.65;;;;;;;24.73;62.79;98458.03;5054089;28;20158;-53
2022/09/09 09:08:16;;;;;;;10.40;8.50;;;;;;;24.58;63.68;98453.84;5053734;28;20285;-53
2022/09/09 09:10:48;;;;;;;8.82;7.35;;;;;;;24.70;63.44;98455.75;5053722;28;20193;-53
2022/09/09 09:13:17;;;;;;;20.15;7.72;;;;;;;24.74;63.45;98449.88;5053949;28;20264;-53
2022/09/09 09:15:46;;;;;;;9.30;7.22;;;;;;;24.95;62.14;98451.69;5053697;28;20191;-53
2022/09/09 09:18:13;;;;;;;12.85;8.23;;;;;;;25.07;61.99;98445.63;5053633;28;20255;-53
2022/09/09 09:20:43;;;;;;;8.70;6.70;;;;;;;25.13;61.37;98452.00;5053916;28;20207;-53
2022/09/09 09:23:17;;;;;;;13.27;7.80;;;;;;;25.16;61.48;98451.59;5053861;28;20335;-53
2022/09/09 09:25:44;;;;;;;10.18;7.78;;;;;;;25.23;61.38;98450.63;5053683;28;20184;-53
2022/09/09 09:28:21;;;;;;;8.35;7.22;;;;;;;25.33;60.60;98440.50;5053715;28;20185;-53
2022/09/09 09:30:53;;;;;;;11.55;7.43;;;;;;;25.45;59.92;98436.28;5053657;28;20193;-53
2022/09/09 09:33:32;;;;;;;9.15;8.23;;;;;;;25.45;59.14;98432.81;5053613;28;20189;-53
2022/09/09 09:35:59;;;;;;;11.65;7.43;;;;;;;25.42;60.56;98427.91;5053374;28;20160;-53
2022/09/09 09:38:28;;;;;;;11.65;8.05;;;;;;;25.42;60.30;98434.00;5053258;28;20177;-53
2022/09/09 09:40:57;;;;;;;14.82;8.38;;;;;;;25.44;60.59;98432.00;5053457;28;20181;-53
2022/09/09 09:43:32;;;;;;;12.20;7.65;;;;;;;25.51;60.42;98427.53;5053399;28;20200;-53
2022/09/09 09:45:58;;;;;;;11.27;7.75;;;;;;;25.64;60.29;98421.44;5053378;28;20176;-53
2022/09/09 09:48:25;;;;;;;11.68;7.25;;;;;;;25.73;59.93;98426.34;5053329;28;20184;-53
2022/09/09 09:50:54;;;;;;;10.43;7.60;;;;;;;25.86;59.04;98409.69;5052933;28;20290;-53
2022/09/09 09:53:28;;;;;;;11.60;7.30;;;;;;;25.91;58.93;98404.63;5052969;28;20173;-53
2022/09/09 09:55:55;;;;;;;10.50;7.50;;;;;;;26.07;58.94;98413.00;5053041;28;20157;-53
2022/09/09 09:58:21;;;;;;;8.45;7.50;;;;;;;26.16;58.91;98417.09;5052858;28;20177;-53
2022/09/09 10:00:52;;;;;;;8.32;6.80;;;;;;;26.18;57.98;98414.25;5052773;28;20172;-53
2022/09/09 10:03:27;;;;;;;8.77;6.90;;;;;;;26.22;57.00;98402.19;5053005;28;20528;-53
2022/09/09 10:05:53;;;;;;;9.20;7.15;;;;;;;26.36;57.23;98409.16;5052699;28;20187;-52
2022/09/09 10:08:22;;;;;;;9.80;7.53;;;;;;;26.41;57.47;98404.06;5052502;28;20235;-52
2022/09/09 10:11:16;;;;;;;7.28;6.38;;;;;;;26.57;56.75;98403.66;5051923;28;20200;-52
2022/09/09 10:13:50;;;;;;;10.60;6.85;;;;;;;26.66;56.43;98397.91;5052842;28;20149;-52
2022/09/09 10:17:03;;;;;;;10.77;6.82;;;;;;;26.68;56.44;98395.88;5052863;28;20548;-52
2022/09/09 10:19:37;;;;;;;6.47;5.93;;;;;;;26.67;55.97;98386.28;4971755;28;20188;-52
2022/09/09 10:22:08;;;;;;;9.32;7.20;;;;;;;26.86;56.05;98393.41;5040395;28;20662;-52
2022/09/09 10:25:24;;;;;;;8.07;6.25;;;;;;;27.03;55.51;98397.25;5052664;28;20212;-53
2022/09/09 10:28:15;;;;;;;6.72;6.05;;;;;;;27.25;54.04;98384.50;4971792;28;20184;-52
2022/09/09 10:30:40;;;;;;;6.80;6.25;;;;;;;27.36;53.57;98387.34;4971588;28;20191;-52
2022/09/09 10:33:09;;;;;;;7.85;6.40;;;;;;;27.50;53.12;98385.41;5028981;28;20192;-52
2022/09/09 10:35:52;;;;;;;8.75;6.60;;;;;;;27.58;52.63;98378.00;5052222;28;20733;-52
2022/09/09 10:38:43;;;;;;;7.15;5.68;;;;;;;27.66;51.95;98374.28;5052223;28;20153;-52
2022/09/09 10:41:39;;;;;;;6.53;5.97;;;;;;;27.88;51.08;98375.63;5052432;28;20246;-52
2022/09/09 10:44:47;;;;;;;8.13;5.90;;;;;;;28.07;50.73;98369.34;5045596;28;20668;-52
2022/09/09 10:47:43;;;;;;;9.52;6.65;;;;;;;28.30;51.36;98369.56;4971356;28;20700;-52
2022/09/09 10:50:19;;;;;;;6.65;5.97;;;;;;;28.48;49.89;98375.78;5052049;28;20294;-52
2022/09/09 10:52:54;;;;;;;6.65;5.15;;;;;;;28.58;49.54;98378.72;5034140;28;20169;-52
2022/09/09 10:55:25;;;;;;;6.30;5.47;;;;;;;28.72;48.42;98379.41;5051949;28;20664;-52
2022/09/09 10:57:53;;;;;;;5.65;5.07;;;;;;;28.84;48.70;98370.50;5052200;28;20173;-52
2022/09/09 11:00:40;;;;;;;6.25;4.63;;;;;;;28.99;48.20;98367.50;5051902;28;20207;-52
2022/09/09 11:03:09;;;;;;;6.40;5.22;;;;;;;29.12;48.10;98373.50;5052131;28;20173;-52
2022/09/09 11:05:49;;;;;;;6.00;5.40;;;;;;;29.25;46.66;98360.00;5051821;28;20259;-52
2022/09/09 11:08:24;;;;;;;8.32;5.13;;;;;;;29.31;47.37;98356.44;5051634;28;20713;-52
2022/09/09 11:11:11;;;;;;;6.38;5.10;;;;;;;29.46;47.35;98354.19;5051740;28;20196;-52
2022/09/09 11:13:54;;;;;;;5.47;4.97;;;;;;;29.61;46.35;98354.59;5052064;28;20222;-52
2022/09/09 11:16:28;;;;;;;5.97;4.68;;;;;;;29.69;46.31;98353.47;5051720;28;20234;-52
2022/09/09 11:19:02;;;;;;;9.73;4.80;;;;;;;29.74;45.46;98353.63;5051996;28;20165;-52
2022/09/09 11:21:40;;;;;;;5.35;4.80;;;;;;;29.72;45.69;98356.50;5051750;28;20621;-52
2022/09/09 11:24:23;;;;;;;5.47;4.28;;;;;;;29.74;46.20;98350.94;5055808;28;20200;-52
2022/09/09 11:26:57;;;;;;;7.22;5.47;;;;;;;29.72;46.44;98345.84;5056146;28;20184;-52
2022/09/09 11:29:43;;;;;;;5.80;4.57;;;;;;;29.80;45.70;98344.69;5055841;28;20244;-52
2022/09/09 11:32:29;;;;;;;9.43;4.95;;;;;;;29.97;45.83;98346.47;5055837;28;20279;-52
2022/09/09 11:35:00;;;;;;;4.82;4.30;;;;;;;30.13;45.74;98345.84;5055665;28;20227;-52
2022/09/09 11:37:37;;;;;;;7.00;4.75;;;;;;;30.24;44.38;98345.03;5055528;28;20227;-52
2022/09/09 11:40:25;;;;;;;7.97;4.20;;;;;;;30.29;44.81;98337.16;5055793;28;20180;-53
2022/09/09 11:43:13;;;;;;;4.72;4.30;;;;;;;30.42;44.45;98331.56;5056164;28;20196;-53
2022/09/09 11:45:41;;;;;;;4.57;4.20;;;;;;;30.55;43.36;98333.19;5055726;28;20211;-53
2022/09/09 11:48:24;;;;;;;5.82;4.82;;;;;;;30.51;44.44;98330.19;5055388;28;20184;-54
2022/09/09 11:50:59;;;;;;;6.63;4.32;;;;;;;30.61;44.39;98337.63;5055485;28;20264;-54
2022/09/09 11:53:24;;;;;;;9.27;4.70;;;;;;;30.45;44.54;98333.78;5055323;28;20157;-53